createdAt,value
2022-07-28T00:02:13.951Z,101455.88
2022-07-28T00:04:43.658Z,101466.38
2022-07-28T00:07:13.733Z,101457.69
2022-07-28T00:09:43.362Z,101468.00
2022-07-28T00:12:13.024Z,101466.22
2022-07-28T00:14:45.410Z,101467.97
2022-07-28T00:17:15.080Z,101465.22
2022-07-28T00:19:44.698Z,101455.47
2022-07-28T00:22:14.386Z,101446.72
2022-07-28T00:24:44.321Z,101466.59
2022-07-28T00:27:14.860Z,101468.25
2022-07-28T00:29:50.963Z,101461.41
2022-07-28T00:32:21.625Z,101468.97
2022-07-28T00:34:53.419Z,101470.56
2022-07-28T00:37:23.536Z,101461.78
2022-07-28T00:39:55.928Z,101459.94
2022-07-28T00:42:25.598Z,101461.59
2022-07-28T00:44:57.845Z,101471.88
2022-07-28T00:47:27.526Z,101469.28
2022-07-28T00:50:03.735Z,101468.53
2022-07-28T00:52:33.581Z,101451.22
2022-07-28T00:55:05.704Z,101482.28
2022-07-28T00:57:35.565Z,101458.78
2022-07-28T01:00:09.078Z,101477.88
2022-07-28T01:02:39.110Z,101469.97
2022-07-28T01:05:09.662Z,101482.03
2022-07-28T01:07:46.052Z,101464.75
2022-07-28T01:10:23.388Z,101462.97
2022-07-28T01:13:01.619Z,101480.94
2022-07-28T01:15:39.466Z,101478.41
2022-07-28T01:18:13.477Z,101464.47
2022-07-28T01:20:49.770Z,101482.63
2022-07-28T01:24:08.023Z,101455.63
2022-07-28T01:26:45.857Z,101475.47
2022-07-28T01:29:54.078Z,101478.59
2022-07-28T01:32:28.577Z,101474.66
2022-07-28T01:35:04.202Z,101474.69
2022-07-28T01:37:35.493Z,101471.25
2022-07-28T01:40:10.336Z,101458.34
2022-07-28T01:42:42.781Z,101445.50
2022-07-28T01:45:15.203Z,101467.88
2022-07-28T01:47:49.618Z,101461.00
2022-07-28T01:50:23.969Z,101463.66
2022-07-28T01:52:54.506Z,101466.31
2022-07-28T01:55:26.505Z,101421.50
2022-07-28T01:57:58.234Z,101445.72
2022-07-28T02:00:29.044Z,101453.56
2022-07-28T02:03:06.121Z,101454.53
2022-07-28T02:05:37.493Z,101436.13
2022-07-28T02:08:09.633Z,101449.06
2022-07-28T02:10:40.494Z,101444.63
2022-07-28T02:13:11.944Z,101422.09
2022-07-28T02:15:43.151Z,101379.75
2022-07-28T02:18:15.849Z,101429.19
2022-07-28T02:20:45.859Z,101435.75
2022-07-28T02:23:17.110Z,101417.41
2022-07-28T02:25:47.154Z,101430.28
2022-07-28T02:28:18.960Z,101440.41
2022-07-28T02:30:53.293Z,101435.09
2022-07-28T02:33:58.394Z,101402.75
2022-07-28T02:36:24.322Z,101433.69
2022-07-28T02:38:57.635Z,101441.34
2022-07-28T02:41:30.038Z,101441.72
2022-07-28T02:44:03.401Z,101441.41
2022-07-28T02:46:42.721Z,101437.00
2022-07-28T02:49:19.152Z,101413.84
2022-07-28T02:51:52.046Z,101440.88
2022-07-28T02:54:23.541Z,101441.72
2022-07-28T02:56:57.727Z,101438.28
2022-07-28T02:59:28.862Z,101436.28
2022-07-28T03:01:59.363Z,101422.66
2022-07-28T03:04:45.007Z,101440.09
2022-07-28T03:07:15.294Z,101450.34
2022-07-28T03:09:47.314Z,101457.88
2022-07-28T03:12:17.739Z,101449.00
2022-07-28T03:14:47.639Z,101461.63
2022-07-28T03:17:17.760Z,101473.47
2022-07-28T03:19:50.018Z,101463.44
2022-07-28T03:22:20.562Z,101458.25
2022-07-28T03:24:53.576Z,101472.28
2022-07-28T03:27:28.737Z,101463.63
2022-07-28T03:30:03.853Z,101474.13
2022-07-28T03:32:37.138Z,101471.72
2022-07-28T03:35:10.279Z,101472.53
2022-07-28T03:37:47.970Z,101472.25
2022-07-28T03:40:18.251Z,101482.22
2022-07-28T03:42:49.297Z,101453.63
2022-07-28T03:45:18.973Z,101468.28
2022-07-28T03:47:53.130Z,101479.56
2022-07-28T03:50:28.118Z,101484.72
2022-07-28T03:52:58.755Z,101474.16
2022-07-28T03:55:29.373Z,101483.75
2022-07-28T03:57:59.795Z,101488.13
2022-07-28T04:00:29.451Z,101485.69
2022-07-28T04:02:59.159Z,101483.97
2022-07-28T04:05:31.620Z,101479.00
2022-07-28T04:08:01.292Z,101454.72
2022-07-28T04:10:30.943Z,101460.88
2022-07-28T04:13:02.617Z,101472.28
2022-07-28T04:15:32.992Z,101465.69
2022-07-28T04:18:03.354Z,101466.78
2022-07-28T04:20:35.781Z,101463.53
2022-07-28T04:23:05.433Z,101447.88
2022-07-28T04:25:35.114Z,101467.03
2022-07-28T04:28:05.501Z,101461.09
2022-07-28T04:30:35.504Z,101462.69
2022-07-28T04:33:13.472Z,101464.22
2022-07-28T04:35:46.191Z,101467.47
2022-07-28T04:38:17.975Z,101465.16
2022-07-28T04:40:47.877Z,101479.00
2022-07-28T04:43:18.015Z,101478.22
2022-07-28T04:45:53.468Z,101445.34
2022-07-28T04:48:24.353Z,101491.50
2022-07-28T04:50:57.303Z,101490.97
2022-07-28T04:53:28.500Z,101472.88
2022-07-28T04:55:58.124Z,101489.59
2022-07-28T04:58:27.850Z,101409.44
2022-07-28T05:01:00.599Z,101419.91
2022-07-28T05:03:35.683Z,101476.22
2022-07-28T05:06:09.556Z,101474.28
2022-07-28T05:08:40.338Z,101470.72
2022-07-28T05:11:13.396Z,101459.09
2022-07-28T05:13:43.144Z,101477.00
2022-07-28T05:16:12.877Z,101453.81
2022-07-28T05:18:43.749Z,101472.00
2022-07-28T05:21:16.975Z,101473.09
2022-07-28T05:23:52.225Z,101472.03
2022-07-28T05:26:23.260Z,101472.88
2022-07-28T05:28:52.963Z,101463.31
2022-07-28T05:31:23.947Z,101475.56
2022-07-28T05:33:57.447Z,101474.09
2022-07-28T05:36:29.791Z,101470.69
2022-07-28T05:39:00.495Z,101459.50
2022-07-28T05:41:31.270Z,101472.81
2022-07-28T05:44:03.058Z,101488.50
2022-07-28T05:46:33.850Z,101421.09
2022-07-28T05:49:03.811Z,101484.06
2022-07-28T05:51:41.385Z,101492.03
2022-07-28T05:54:14.490Z,101493.91
2022-07-28T05:56:49.905Z,101498.34
2022-07-28T05:59:20.116Z,101495.19
2022-07-28T06:01:49.879Z,101499.06
2022-07-28T06:04:28.806Z,101484.91
2022-07-28T06:07:02.671Z,101488.13
2022-07-28T06:09:33.351Z,101476.53
2022-07-28T06:12:03.821Z,101483.00
2022-07-28T06:14:33.538Z,101494.53
2022-07-28T06:17:04.359Z,101486.94
2022-07-28T06:19:35.134Z,101485.38
2022-07-28T06:22:08.639Z,101488.00
2022-07-28T06:24:38.874Z,101469.22
2022-07-28T06:27:08.643Z,101470.69
2022-07-28T06:29:39.355Z,101455.38
2022-07-28T06:32:10.046Z,101482.41
2022-07-28T06:34:39.839Z,101460.22
2022-07-28T06:37:12.249Z,101455.16
2022-07-28T06:39:43.020Z,101453.47
2022-07-28T06:42:13.790Z,101487.16
2022-07-28T06:44:58.270Z,101475.97
2022-07-28T06:47:30.283Z,101462.19
2022-07-28T06:50:00.013Z,101493.22
2022-07-28T06:52:32.274Z,101489.78
2022-07-28T06:55:02.413Z,101490.63
2022-07-28T06:57:33.942Z,101486.28
2022-07-28T07:00:06.365Z,101484.59
2022-07-28T07:02:41.002Z,101499.31
2022-07-28T07:05:12.972Z,101485.47
2022-07-28T07:07:45.285Z,101493.25
2022-07-28T07:10:16.049Z,101495.84
2022-07-28T07:12:45.848Z,101488.06
2022-07-28T07:15:16.645Z,101493.25
2022-07-28T07:17:46.364Z,101500.97
2022-07-28T07:20:17.320Z,101489.81
2022-07-28T07:22:51.843Z,101479.47
2022-07-28T07:25:22.645Z,101491.47
2022-07-28T07:27:53.288Z,101494.91
2022-07-28T07:30:24.017Z,101469.97
2022-07-28T07:32:54.814Z,101462.19
2022-07-28T07:35:25.594Z,101475.06
2022-07-28T07:37:58.277Z,101492.25
2022-07-28T07:40:29.012Z,101484.59
2022-07-28T07:42:58.846Z,101482.03
2022-07-28T07:45:29.589Z,101483.69
2022-07-28T07:47:59.366Z,101490.53
2022-07-28T07:50:29.057Z,101481.03
2022-07-28T07:53:02.410Z,101486.16
2022-07-28T07:55:34.451Z,101485.31
2022-07-28T07:58:08.966Z,101467.19
2022-07-28T08:00:38.702Z,101469.66
2022-07-28T08:03:11.216Z,101469.50
2022-07-28T08:05:42.565Z,101466.00
2022-07-28T08:08:15.164Z,101453.13
2022-07-28T08:10:45.976Z,101457.28
2022-07-28T08:13:20.453Z,101463.34
2022-07-28T08:15:50.394Z,101439.50
2022-07-28T08:18:21.447Z,101441.22
2022-07-28T08:20:52.263Z,101394.72
2022-07-28T08:23:26.386Z,101400.81
2022-07-28T08:25:57.285Z,101462.06
2022-07-28T08:28:28.154Z,101452.53
2022-07-28T08:30:58.276Z,101448.28
2022-07-28T08:33:29.540Z,101461.97
2022-07-28T08:36:00.271Z,101456.81
2022-07-28T08:38:33.617Z,101379.31
2022-07-28T08:41:07.144Z,101467.13
2022-07-28T08:43:40.513Z,101456.88
2022-07-28T08:46:12.013Z,101416.13
2022-07-28T08:48:42.946Z,101441.91
2022-07-28T08:51:15.291Z,101453.91
2022-07-28T08:53:49.082Z,101438.31
2022-07-28T08:56:19.391Z,101434.00
2022-07-28T08:58:50.055Z,101449.63
2022-07-28T09:01:21.167Z,101440.94
2022-07-28T09:03:52.018Z,101442.81
2022-07-28T09:06:24.602Z,101423.75
2022-07-28T09:08:56.963Z,101444.22
2022-07-28T09:11:26.764Z,101458.06
2022-07-28T09:13:57.474Z,101435.63
2022-07-28T09:16:27.304Z,101435.63
2022-07-28T09:18:58.118Z,101429.63
2022-07-28T09:21:27.990Z,101420.03
2022-07-28T09:24:01.519Z,101353.78
2022-07-28T09:26:32.290Z,101377.81
2022-07-28T09:29:04.190Z,101413.88
2022-07-28T09:31:34.026Z,101431.94
2022-07-28T09:34:07.156Z,101375.19
2022-07-28T09:36:42.072Z,101416.44
2022-07-28T09:39:14.433Z,101430.25
2022-07-28T09:41:50.016Z,101398.53
2022-07-28T09:44:22.286Z,101379.41
2022-07-28T09:46:52.278Z,101411.94
2022-07-28T09:49:28.499Z,101386.97
2022-07-28T09:52:03.694Z,101318.97
2022-07-28T09:54:40.565Z,101409.50
2022-07-28T09:57:13.306Z,101415.50
2022-07-28T09:59:50.486Z,101400.78
2022-07-28T10:02:27.199Z,101405.44
2022-07-28T10:05:00.125Z,101397.66
2022-07-28T10:07:31.402Z,101398.34
2022-07-28T10:10:04.834Z,101406.91
2022-07-28T10:12:36.020Z,101410.19
2022-07-28T10:15:36.109Z,101417.03
2022-07-28T10:18:08.018Z,101404.03
2022-07-28T10:20:39.726Z,101397.97
2022-07-28T10:23:13.655Z,101392.72
2022-07-28T10:25:46.753Z,101397.69
2022-07-28T10:28:22.948Z,101368.53
2022-07-28T10:30:58.181Z,101383.63
2022-07-28T10:33:29.018Z,101376.09
2022-07-28T10:35:58.917Z,101338.13
2022-07-28T10:38:30.263Z,101387.81
2022-07-28T10:41:06.764Z,101369.09
2022-07-28T10:43:42.636Z,101344.19
2022-07-28T10:46:16.861Z,101381.03
2022-07-28T10:48:47.605Z,101373.38
2022-07-28T10:51:17.848Z,101374.00
2022-07-28T10:53:54.631Z,101375.69
2022-07-28T10:56:43.851Z,101377.09
2022-07-28T10:59:29.138Z,101365.69
2022-07-28T11:01:59.124Z,101357.69
2022-07-28T11:04:55.804Z,101354.25
2022-07-28T11:07:26.650Z,101355.13
2022-07-28T11:09:56.384Z,101341.38
2022-07-28T11:12:51.743Z,101358.38
2022-07-28T11:15:35.759Z,101336.81
2022-07-28T11:18:11.194Z,101347.91
2022-07-28T11:21:16.382Z,101358.91
2022-07-28T11:23:56.398Z,101356.56
2022-07-28T11:26:38.030Z,101340.06
2022-07-28T11:29:22.377Z,101341.19
2022-07-28T11:32:05.597Z,101342.25
2022-07-28T11:35:11.270Z,101333.97
2022-07-28T11:38:09.362Z,101331.44
2022-07-28T11:40:45.193Z,101322.09
2022-07-28T11:43:40.194Z,101336.81
2022-07-28T11:46:42.929Z,101296.75
2022-07-28T11:49:30.579Z,101273.66
2022-07-28T11:52:17.035Z,101326.78
2022-07-28T11:54:53.754Z,101300.59
2022-07-28T11:57:26.081Z,101296.41
2022-07-28T12:00:04.579Z,101291.75
2022-07-28T12:02:40.558Z,101315.72
2022-07-28T12:05:18.041Z,101321.81
2022-07-28T12:07:50.766Z,101326.63
2022-07-28T12:10:55.629Z,101292.03
2022-07-28T12:13:31.102Z,101319.56
2022-07-28T12:16:01.781Z,101309.16
2022-07-28T12:18:36.217Z,101314.88
2022-07-28T12:21:08.528Z,101311.50
2022-07-28T12:23:49.338Z,101304.34
2022-07-28T12:26:34.537Z,101306.84
2022-07-28T12:29:15.135Z,101277.66
2022-07-28T12:31:59.354Z,101231.31
2022-07-28T12:34:35.360Z,101283.31
2022-07-28T12:37:09.923Z,101294.84
2022-07-28T12:39:43.368Z,101292.22
2022-07-28T12:42:15.628Z,101278.75
2022-07-28T12:44:48.635Z,101290.84
2022-07-28T12:47:27.666Z,101281.22
2022-07-28T12:50:17.874Z,101277.22
2022-07-28T12:53:04.117Z,101273.63
2022-07-28T12:55:34.097Z,101269.91
2022-07-28T12:58:04.322Z,101274.00
2022-07-28T13:00:36.543Z,101246.38
2022-07-28T13:03:25.895Z,101271.00
2022-07-28T13:06:06.861Z,101257.91
2022-07-28T13:08:44.293Z,101273.72
2022-07-28T13:14:08.296Z,101267.25
2022-07-28T13:16:38.652Z,101250.69
2022-07-28T13:19:10.561Z,101223.03
2022-07-28T13:21:58.055Z,101251.91
2022-07-28T13:24:30.503Z,101180.25
2022-07-28T13:27:01.873Z,101266.81
2022-07-28T13:29:36.302Z,101180.72
2022-07-28T13:32:06.584Z,101241.59
2022-07-28T13:34:36.655Z,101232.72
2022-07-28T13:37:09.435Z,101247.38
2022-07-28T13:39:39.282Z,101246.81
2022-07-28T13:42:10.446Z,101251.88
2022-07-28T13:44:41.658Z,101242.28
2022-07-28T13:47:11.486Z,101221.88
2022-07-28T13:49:46.528Z,101217.66
2022-07-28T13:52:32.732Z,101217.94
2022-07-28T13:55:06.311Z,101197.22
2022-07-28T13:57:36.846Z,101217.72
2022-07-28T14:00:09.462Z,101182.03
2022-07-28T14:02:44.275Z,101211.31
2022-07-28T14:05:14.600Z,101222.13
2022-07-28T14:07:49.310Z,101214.38
2022-07-28T14:10:19.388Z,101191.13
2022-07-28T14:12:50.185Z,101211.03
2022-07-28T14:15:21.039Z,101192.16
2022-07-28T14:17:50.882Z,101210.28
2022-07-28T14:20:20.738Z,101208.44
2022-07-28T14:22:54.055Z,101201.56
2022-07-28T14:25:23.838Z,101203.69
2022-07-28T14:27:55.296Z,101215.84
2022-07-28T14:30:27.393Z,101203.31
2022-07-28T14:32:58.403Z,101184.03
2022-07-28T14:35:28.391Z,101172.28
2022-07-28T14:38:50.236Z,101196.44
2022-07-28T14:40:50.771Z,101211.16
2022-07-28T14:43:20.777Z,101152.44
2022-07-28T14:46:14.654Z,101200.97
2022-07-28T14:48:42.067Z,101189.59
2022-07-28T14:51:13.706Z,101190.44
2022-07-28T14:53:50.095Z,101191.66
2022-07-28T14:56:23.657Z,101186.13
2022-07-28T14:58:54.489Z,101187.34
2022-07-28T15:01:27.124Z,101193.28
2022-07-28T15:04:00.068Z,101196.78
2022-07-28T15:06:34.638Z,101152.00
2022-07-28T15:09:09.772Z,101058.97
2022-07-28T15:11:42.347Z,101116.56
2022-07-28T15:14:14.716Z,101172.88
2022-07-28T15:16:46.268Z,101188.66
2022-07-28T15:19:16.202Z,101174.84
2022-07-28T15:21:48.504Z,101170.53
2022-07-28T15:24:22.395Z,101192.75
2022-07-28T15:26:52.152Z,101181.75
2022-07-28T15:29:22.158Z,101182.94
2022-07-28T15:31:52.033Z,101161.56
2022-07-28T15:34:22.070Z,101182.56
2022-07-28T15:36:51.813Z,101175.97
2022-07-28T15:39:24.483Z,101170.22
2022-07-28T15:41:54.269Z,101187.53
2022-07-28T15:44:25.928Z,101157.91
2022-07-28T15:46:56.246Z,101178.03
2022-07-28T15:49:27.523Z,101166.03
2022-07-28T15:52:00.781Z,101115.25
2022-07-28T15:54:33.458Z,101166.34
2022-07-28T15:57:04.226Z,101146.69
2022-07-28T15:59:49.940Z,101114.28
2022-07-28T16:02:20.638Z,101162.81
2022-07-28T16:04:53.764Z,101109.28
2022-07-28T16:07:28.269Z,101144.00
2022-07-28T16:10:00.698Z,101161.84
2022-07-28T16:12:32.118Z,101149.03
2022-07-28T16:15:01.936Z,101148.16
2022-07-28T16:17:31.799Z,101103.47
2022-07-28T16:20:02.919Z,101110.88
2022-07-28T16:22:33.003Z,101145.44
2022-07-28T16:25:06.447Z,101073.34
2022-07-28T16:27:37.537Z,101143.69
2022-07-28T16:30:08.048Z,101160.00
2022-07-28T16:32:37.810Z,101130.00
2022-07-28T16:35:09.406Z,101113.56
2022-07-28T16:37:40.319Z,101137.69
2022-07-28T16:40:14.239Z,101146.38
2022-07-28T16:42:44.533Z,101136.91
2022-07-28T16:45:14.798Z,101140.53
2022-07-28T16:47:45.321Z,101143.06
2022-07-28T16:50:19.060Z,101119.44
2022-07-28T16:52:49.882Z,101148.44
2022-07-28T16:55:23.763Z,101136.56
2022-07-28T16:57:53.758Z,101133.16
2022-07-28T17:00:25.727Z,101143.75
2022-07-28T17:02:56.079Z,101131.13
2022-07-28T17:05:26.047Z,101139.72
2022-07-28T17:07:58.508Z,101148.56
2022-07-28T17:10:31.362Z,101136.44
2022-07-28T17:13:01.042Z,101140.63
2022-07-28T17:15:33.104Z,101072.44
2022-07-28T17:18:02.973Z,101139.13
2022-07-28T17:20:33.061Z,101132.03
2022-07-28T17:23:04.392Z,101136.66
2022-07-28T17:28:30.540Z,101117.25
2022-07-28T17:31:01.308Z,101143.53
2022-07-28T17:33:33.037Z,101135.41
2022-07-28T17:36:04.325Z,101131.50
2022-07-28T17:38:34.110Z,101143.84
2022-07-28T17:41:09.241Z,101136.31
2022-07-28T17:43:43.614Z,101145.97
2022-07-28T17:46:15.296Z,101124.22
2022-07-28T17:48:45.496Z,101152.63
2022-07-28T17:51:15.687Z,101139.78
2022-07-28T17:53:46.195Z,101150.91
2022-07-28T17:56:19.272Z,101089.41
2022-07-28T17:58:51.026Z,101094.75
2022-07-28T18:01:20.945Z,101104.00
2022-07-28T18:03:58.303Z,101129.50
2022-07-28T18:06:32.494Z,101131.56
2022-07-28T18:09:06.768Z,101133.19
2022-07-28T18:11:57.610Z,101146.84
2022-07-28T18:14:28.670Z,101119.56
2022-07-28T18:17:00.242Z,101143.34
2022-07-28T18:19:31.241Z,101137.56
2022-07-28T18:22:01.056Z,101133.59
2022-07-28T18:24:32.054Z,101122.44
2022-07-28T18:27:04.421Z,101132.75
2022-07-28T18:29:37.993Z,101140.47
2022-07-28T18:32:12.196Z,101128.78
2022-07-28T18:34:41.894Z,101119.47
2022-07-28T18:37:12.717Z,101110.25
2022-07-28T18:39:43.491Z,101114.69
2022-07-28T18:42:15.966Z,101131.66
2022-07-28T18:44:45.931Z,101140.16
2022-07-28T18:47:15.703Z,101134.41
2022-07-28T18:49:47.405Z,101137.16
2022-07-28T18:52:17.130Z,101117.59
2022-07-28T18:54:46.817Z,101140.50
2022-07-28T18:57:20.539Z,101139.00
2022-07-28T18:59:52.378Z,101140.88
2022-07-28T19:02:23.338Z,101123.22
2022-07-28T19:04:57.576Z,101130.25
2022-07-28T19:07:28.297Z,101119.13
2022-07-28T19:10:00.988Z,101148.44
2022-07-28T19:12:38.398Z,101107.44
2022-07-28T19:17:40.275Z,101139.19
2022-07-28T19:20:12.639Z,101145.59
2022-07-28T19:22:42.828Z,101117.53
2022-07-28T19:25:13.706Z,101137.47
2022-07-28T19:27:48.786Z,101148.41
2022-07-28T19:30:18.518Z,101154.75
2022-07-28T19:32:48.310Z,101146.22
2022-07-28T19:35:19.087Z,101133.69
2022-07-28T19:37:48.994Z,101157.09
2022-07-28T19:40:18.905Z,101145.91
2022-07-28T19:42:51.206Z,101145.13
2022-07-28T19:45:22.052Z,101159.00
2022-07-28T19:47:54.596Z,101159.41
2022-07-28T19:50:25.069Z,101164.56
2022-07-28T19:52:55.043Z,101120.09
2022-07-28T19:55:26.982Z,101169.09
2022-07-28T19:58:02.565Z,101177.72
2022-07-28T20:00:33.248Z,101178.00
2022-07-28T20:03:03.610Z,101178.97
2022-07-28T20:05:44.230Z,101164.59
2022-07-28T20:08:15.004Z,101186.00
2022-07-28T20:10:47.417Z,101178.19
2022-07-28T20:13:20.738Z,101186.81
2022-07-28T20:15:51.763Z,101189.41
2022-07-28T20:18:22.496Z,101167.16
2022-07-28T20:20:52.362Z,101192.16
2022-07-28T20:23:23.142Z,101199.97
2022-07-28T20:25:52.986Z,101202.63
2022-07-28T20:28:25.297Z,101169.34
2022-07-28T20:30:55.089Z,101161.63
2022-07-28T20:33:25.853Z,101197.63
2022-07-28T20:35:56.741Z,101207.22
2022-07-28T20:38:26.446Z,101169.41
2022-07-28T20:40:56.235Z,101184.03
2022-07-28T20:43:37.036Z,101202.94
2022-07-28T20:46:08.293Z,101200.66
2022-07-28T20:48:38.174Z,101183.59
2022-07-28T20:51:07.958Z,101195.63
2022-07-28T20:53:37.786Z,101169.84
2022-07-28T20:56:08.572Z,101205.13
2022-07-28T20:58:42.019Z,101158.06
2022-07-28T21:01:12.015Z,101211.34
2022-07-28T21:03:44.368Z,101212.19
2022-07-28T21:06:15.337Z,101203.50
2022-07-28T21:08:45.800Z,101203.63
2022-07-28T21:11:15.555Z,101197.69
2022-07-28T21:13:47.909Z,101209.66
2022-07-28T21:16:17.851Z,101184.88
2022-07-28T21:18:48.789Z,101203.88
2022-07-28T21:21:21.718Z,101197.97
2022-07-28T21:23:51.985Z,101192.84
2022-07-28T21:26:21.863Z,101223.03
2022-07-28T21:29:06.712Z,101222.28
2022-07-28T21:31:58.418Z,101216.31
2022-07-28T21:34:27.307Z,101208.63
2022-07-28T21:36:57.053Z,101225.88
2022-07-28T21:39:26.823Z,101202.72
2022-07-28T21:41:56.538Z,101206.16
2022-07-28T21:44:29.963Z,101223.34
2022-07-28T21:46:59.751Z,101219.97
2022-07-28T21:49:31.407Z,101235.38
2022-07-28T21:52:02.353Z,101225.13
2022-07-28T21:54:32.263Z,101219.16
2022-07-28T21:57:02.065Z,101219.19
2022-07-28T21:59:34.462Z,101221.81
2022-07-28T22:02:04.163Z,101230.34
2022-07-28T22:04:33.944Z,101226.78
2022-07-28T22:07:03.801Z,101241.25
2022-07-28T22:09:37.839Z,101207.13
2022-07-28T22:12:08.653Z,101212.31
2022-07-28T22:14:40.999Z,101227.72
2022-07-28T22:17:11.785Z,101224.28
2022-07-28T22:19:41.532Z,101221.78
2022-07-28T22:22:12.314Z,101215.72
2022-07-28T22:24:42.015Z,101200.28
2022-07-28T22:27:12.751Z,101243.34
2022-07-28T22:29:51.918Z,101245.00
2022-07-28T22:32:26.690Z,101243.34
2022-07-28T22:34:59.482Z,101246.78
2022-07-28T22:37:29.284Z,101241.66
2022-07-28T22:40:00.065Z,101252.84
2022-07-28T22:42:31.026Z,101261.44
2022-07-28T22:45:03.493Z,101267.50
2022-07-28T22:47:34.273Z,101237.47
2022-07-28T22:50:05.474Z,101265.88
2022-07-28T22:52:35.439Z,101214.25
2022-07-28T22:55:05.802Z,101259.84
2022-07-28T22:57:35.650Z,101246.91
2022-07-28T23:00:11.961Z,101260.66
2022-07-28T23:02:41.758Z,101246.91
2022-07-28T23:05:12.506Z,101249.47
2022-07-28T23:07:52.774Z,101253.78
2022-07-28T23:10:26.648Z,101241.78
2022-07-28T23:12:58.679Z,101194.44
2022-07-28T23:15:39.451Z,101254.66
2022-07-28T23:18:11.273Z,101234.00
2022-07-28T23:20:43.072Z,101255.53
2022-07-28T23:23:18.277Z,101247.72
2022-07-28T23:25:48.991Z,101188.41
2022-07-28T23:28:18.741Z,101254.59
2022-07-28T23:30:51.888Z,101252.63
2022-07-28T23:33:54.138Z,101240.75
2022-07-28T23:36:15.067Z,101226.22
2022-07-28T23:38:56.912Z,101233.09
2022-07-28T23:41:27.090Z,101227.09
2022-07-28T23:43:56.910Z,101245.16
2022-07-28T23:46:30.249Z,101212.50
2022-07-28T23:49:00.658Z,101164.34
2022-07-28T23:51:46.603Z,101192.66
2022-07-28T23:54:18.538Z,101230.53
2022-07-28T23:56:49.454Z,101222.84
2022-07-28T23:59:19.254Z,101225.38
